createdAt,value
2023-02-23T00:02:09.401Z,39.45
2023-02-23T00:04:38.339Z,43.63
2023-02-23T00:07:07.232Z,41.72
2023-02-23T00:09:36.195Z,40.63
2023-02-23T00:12:08.873Z,41.03
2023-02-23T00:14:39.289Z,42.45
2023-02-23T00:17:14.054Z,41.38
2023-02-23T00:19:43.430Z,42.80
2023-02-23T00:22:11.953Z,43.45
2023-02-23T00:24:42.263Z,43.65
2023-02-23T00:27:17.705Z,43.58
2023-02-23T00:29:49.255Z,42.42
2023-02-23T00:32:19.886Z,42.67
2023-02-23T00:34:49.634Z,44.75
2023-02-23T00:37:19.273Z,43.78
2023-02-23T00:39:47.431Z,43.15
2023-02-23T00:42:16.966Z,42.25
2023-02-23T00:44:47.477Z,44.10
2023-02-23T00:47:15.600Z,42.80
2023-02-23T00:49:45.009Z,43.50
2023-02-23T00:52:14.966Z,46.15
2023-02-23T00:54:43.283Z,44.80
2023-02-23T00:57:11.321Z,43.45
2023-02-23T00:59:40.860Z,45.88
2023-02-23T01:02:09.100Z,45.72
2023-02-23T01:04:37.116Z,44.78
2023-02-23T01:07:06.657Z,45.97
2023-02-23T01:09:35.247Z,42.78
2023-02-23T01:12:07.375Z,47.88
2023-02-23T01:14:35.825Z,43.90
2023-02-23T01:17:05.337Z,43.05
2023-02-23T01:19:34.154Z,45.58
2023-02-23T01:22:02.621Z,44.97
2023-02-23T01:24:30.905Z,45.38
2023-02-23T01:26:58.856Z,46.63
2023-02-23T01:29:26.906Z,42.30
2023-02-23T01:31:55.118Z,44.67
2023-02-23T01:34:24.535Z,42.00
2023-02-23T01:36:52.595Z,44.15
2023-02-23T01:39:22.098Z,39.67
2023-02-23T01:41:54.240Z,39.65
2023-02-23T01:45:24.161Z,42.03
2023-02-23T01:50:26.598Z,35.13
2023-02-23T01:52:56.716Z,38.53
2023-02-23T01:55:29.133Z,38.53
2023-02-23T01:58:12.180Z,40.15
2023-02-23T02:00:40.875Z,38.28
2023-02-23T02:03:20.004Z,36.47
2023-02-23T02:05:51.632Z,37.17
2023-02-23T02:08:23.913Z,39.60
2023-02-23T02:10:56.035Z,37.60
2023-02-23T02:13:30.183Z,42.45
2023-02-23T02:16:18.692Z,39.55
2023-02-23T02:19:40.775Z,39.67
2023-02-23T02:22:46.026Z,38.58
2023-02-23T02:25:37.160Z,40.60
2023-02-23T02:29:14.222Z,40.97
2023-02-23T02:32:48.511Z,40.10
2023-02-23T02:35:44.613Z,40.40
2023-02-23T02:38:27.076Z,39.67
2023-02-23T02:41:07.594Z,38.22
2023-02-23T02:43:50.979Z,39.05
2023-02-23T02:46:26.314Z,37.28
2023-02-23T02:49:06.693Z,37.65
2023-02-23T02:51:45.722Z,34.67
2023-02-23T02:54:27.993Z,39.58
2023-02-23T02:57:02.045Z,34.45
2023-02-23T02:59:47.951Z,35.83
2023-02-23T03:02:37.946Z,35.42
2023-02-23T03:05:32.490Z,31.90
2023-02-23T03:08:32.822Z,33.25
2023-02-23T03:11:24.583Z,31.65
2023-02-23T03:14:33.334Z,32.05
2023-02-23T03:20:18.638Z,28.30
2023-02-23T03:23:16.448Z,30.10
2023-02-23T03:26:12.309Z,27.92
2023-02-23T03:29:14.319Z,28.30
2023-02-23T03:32:09.395Z,27.95
2023-02-23T03:35:03.091Z,27.45
2023-02-23T03:37:55.656Z,26.45
2023-02-23T03:40:47.607Z,25.98
2023-02-23T03:43:40.977Z,26.23
2023-02-23T03:46:32.964Z,27.10
2023-02-23T03:49:25.721Z,25.17
2023-02-23T03:52:22.193Z,24.27
2023-02-23T03:55:15.826Z,24.17
2023-02-23T03:58:06.994Z,27.83
2023-02-23T04:01:01.946Z,28.10
2023-02-23T04:03:54.117Z,25.48
2023-02-23T04:06:46.723Z,23.42
2023-02-23T04:09:32.861Z,23.38
2023-02-23T04:12:31.768Z,22.20
2023-02-23T04:15:10.560Z,24.27
2023-02-23T04:17:38.703Z,24.27
2023-02-23T04:20:12.175Z,22.45
2023-02-23T04:22:40.447Z,24.40
2023-02-23T04:25:09.506Z,25.95
2023-02-23T04:27:37.988Z,28.38
2023-02-23T04:30:11.523Z,24.80
2023-02-23T04:32:39.852Z,25.48
2023-02-23T04:35:11.152Z,25.90
2023-02-23T04:37:39.689Z,25.27
2023-02-23T04:40:10.029Z,24.40
2023-02-23T04:42:40.277Z,23.65
2023-02-23T04:45:10.812Z,27.33
2023-02-23T04:47:39.484Z,23.80
2023-02-23T04:50:11.974Z,25.35
2023-02-23T04:52:40.148Z,24.67
2023-02-23T04:55:10.571Z,25.73
2023-02-23T04:57:38.590Z,26.52
2023-02-23T05:00:08.800Z,26.83
2023-02-23T05:02:36.847Z,26.73
2023-02-23T05:05:05.598Z,24.73
2023-02-23T05:07:35.053Z,22.88
2023-02-23T05:10:03.893Z,23.27
2023-02-23T05:12:32.126Z,25.52
2023-02-23T05:15:00.441Z,23.20
2023-02-23T05:17:28.565Z,27.98
2023-02-23T05:19:56.856Z,26.90
2023-02-23T05:22:24.913Z,27.02
2023-02-23T05:24:56.444Z,23.50
2023-02-23T05:27:25.414Z,26.30
2023-02-23T05:29:53.611Z,26.80
2023-02-23T05:32:22.012Z,28.27
2023-02-23T05:34:50.096Z,24.60
2023-02-23T05:37:18.951Z,26.25
2023-02-23T05:39:47.969Z,26.25
2023-02-23T05:42:17.456Z,25.98
2023-02-23T05:44:45.726Z,25.38
2023-02-23T05:47:13.827Z,25.73
2023-02-23T05:49:41.882Z,24.15
2023-02-23T05:52:09.918Z,23.95
2023-02-23T05:54:38.081Z,29.40
2023-02-23T05:57:06.172Z,31.30
2023-02-23T05:59:35.584Z,28.85
2023-02-23T06:02:06.137Z,23.70
2023-02-23T06:04:34.532Z,21.50
2023-02-23T06:07:02.602Z,25.75
2023-02-23T06:09:30.658Z,22.85
2023-02-23T06:12:00.886Z,24.25
2023-02-23T06:14:29.029Z,25.65
2023-02-23T06:16:58.742Z,27.77
2023-02-23T06:19:26.911Z,24.05
2023-02-23T06:21:54.972Z,25.67
2023-02-23T06:24:23.592Z,26.63
2023-02-23T06:26:51.845Z,26.83
2023-02-23T06:29:20.057Z,27.40
2023-02-23T06:31:48.226Z,28.48
2023-02-23T06:34:17.713Z,30.50
2023-02-23T06:36:45.868Z,30.02
2023-02-23T06:39:14.274Z,29.83
2023-02-23T06:41:42.331Z,28.90
2023-02-23T06:44:10.489Z,32.35
2023-02-23T06:46:38.516Z,30.65
2023-02-23T06:49:06.570Z,27.02
2023-02-23T06:51:36.024Z,30.02
2023-02-23T06:54:04.106Z,27.95
2023-02-23T06:56:32.172Z,25.85
2023-02-23T06:59:00.224Z,26.95
2023-02-23T07:01:28.327Z,25.60
2023-02-23T07:03:56.440Z,29.05
2023-02-23T07:06:24.783Z,27.55
2023-02-23T07:08:54.175Z,26.73
2023-02-23T07:11:22.229Z,26.55
2023-02-23T07:13:50.300Z,27.45
2023-02-23T07:16:18.461Z,29.67
2023-02-23T07:18:46.496Z,27.02
2023-02-23T07:21:14.666Z,28.20
2023-02-23T07:23:42.699Z,25.27
2023-02-23T07:26:16.159Z,27.23
2023-02-23T07:28:44.598Z,26.15
2023-02-23T07:31:12.677Z,25.20
2023-02-23T07:33:40.849Z,24.65
2023-02-23T07:36:09.810Z,27.63
2023-02-23T07:38:38.020Z,26.50
2023-02-23T07:41:06.703Z,27.55
2023-02-23T07:43:36.183Z,35.47
2023-02-23T07:46:04.330Z,31.52
2023-02-23T07:48:33.205Z,27.02
2023-02-23T07:51:01.384Z,27.48
2023-02-23T07:53:29.429Z,27.55
2023-02-23T07:55:58.435Z,31.52
2023-02-23T07:58:26.433Z,26.23
2023-02-23T08:00:56.293Z,25.00
2023-02-23T08:03:25.703Z,26.85
2023-02-23T08:05:53.983Z,28.23
2023-02-23T08:08:22.200Z,25.88
2023-02-23T08:10:50.528Z,23.83
2023-02-23T08:13:18.945Z,26.90
2023-02-23T08:15:47.564Z,26.20
2023-02-23T08:18:17.620Z,25.45
2023-02-23T08:20:45.902Z,21.65
2023-02-23T08:23:13.982Z,22.65
2023-02-23T08:25:42.022Z,22.67
2023-02-23T08:28:10.355Z,21.83
2023-02-23T08:30:39.634Z,22.23
2023-02-23T08:33:08.248Z,22.25
2023-02-23T08:35:37.620Z,21.27
2023-02-23T08:38:05.632Z,21.08
2023-02-23T08:40:33.667Z,21.70
2023-02-23T08:43:01.621Z,18.20
2023-02-23T08:45:29.869Z,18.90
2023-02-23T08:47:58.200Z,18.45
2023-02-23T08:50:27.510Z,16.75
2023-02-23T08:52:57.035Z,17.27
2023-02-23T08:55:25.096Z,19.08
2023-02-23T08:57:53.225Z,15.35
2023-02-23T09:00:22.808Z,16.15
2023-02-23T09:02:51.793Z,15.57
2023-02-23T09:05:20.307Z,16.05
2023-02-23T09:07:49.337Z,16.08
2023-02-23T09:10:24.036Z,16.00
2023-02-23T09:12:52.964Z,14.73
2023-02-23T09:15:21.772Z,15.95
2023-02-23T09:17:49.926Z,14.40
2023-02-23T09:20:18.966Z,13.35
2023-02-23T09:22:49.623Z,14.98
2023-02-23T09:25:22.853Z,14.13
2023-02-23T09:27:52.762Z,12.68
2023-02-23T09:30:22.667Z,15.30
2023-02-23T09:32:52.209Z,13.32
2023-02-23T09:35:22.506Z,14.32
2023-02-23T09:37:53.135Z,14.73
2023-02-23T09:40:27.519Z,14.82
2023-02-23T09:43:04.353Z,13.95
2023-02-23T09:45:41.762Z,15.63
2023-02-23T09:48:17.377Z,13.55
2023-02-23T09:50:51.350Z,14.30
2023-02-23T09:53:39.136Z,15.10
2023-02-23T09:56:17.976Z,15.43
2023-02-23T09:58:46.420Z,14.70
2023-02-23T10:01:47.614Z,16.42
2023-02-23T10:04:23.547Z,15.77
2023-02-23T10:07:10.532Z,16.23
2023-02-23T10:10:02.559Z,14.35
2023-02-23T10:12:43.688Z,14.77
2023-02-23T10:15:26.408Z,15.65
2023-02-23T10:18:12.277Z,13.65
2023-02-23T10:20:51.983Z,17.00
2023-02-23T10:23:31.284Z,14.98
2023-02-23T10:26:03.494Z,15.60
2023-02-23T10:28:38.128Z,14.68
2023-02-23T10:31:31.390Z,17.45
2023-02-23T10:34:06.017Z,17.25
2023-02-23T10:36:40.530Z,17.83
2023-02-23T10:39:13.601Z,13.55
2023-02-23T10:41:44.169Z,18.38
2023-02-23T10:44:22.772Z,16.35
2023-02-23T10:46:56.989Z,16.77
2023-02-23T10:49:33.348Z,18.17
2023-02-23T10:52:03.081Z,16.63
2023-02-23T10:54:44.570Z,15.80
2023-02-23T10:57:22.814Z,16.27
2023-02-23T11:00:27.600Z,16.40
2023-02-23T11:02:59.176Z,14.88
2023-02-23T11:05:44.349Z,17.35
2023-02-23T11:08:29.296Z,17.75
2023-02-23T11:11:18.983Z,15.35
2023-02-23T11:13:50.016Z,17.52
2023-02-23T11:16:23.019Z,12.18
2023-02-23T11:18:56.393Z,15.43
2023-02-23T11:21:33.575Z,16.85
2023-02-23T11:24:19.510Z,14.60
2023-02-23T11:26:51.459Z,15.18
2023-02-23T11:29:33.517Z,13.43
2023-02-23T11:32:10.523Z,15.02
2023-02-23T11:34:41.001Z,15.43
2023-02-23T11:37:21.879Z,15.57
2023-02-23T11:39:55.874Z,14.50
2023-02-23T11:42:27.191Z,14.65
2023-02-23T11:45:06.924Z,14.40
2023-02-23T11:47:42.630Z,14.13
2023-02-23T11:50:25.005Z,13.35
2023-02-23T11:53:03.774Z,12.73
2023-02-23T11:55:34.942Z,12.13
2023-02-23T11:58:16.793Z,14.05
2023-02-23T12:00:45.032Z,11.15
2023-02-23T12:03:26.174Z,11.25
2023-02-23T12:05:59.215Z,11.55
2023-02-23T12:08:43.123Z,13.35
2023-02-23T12:11:21.261Z,13.10
2023-02-23T12:13:57.656Z,13.50
2023-02-23T12:16:34.737Z,12.45
2023-02-23T12:19:13.053Z,12.77
2023-02-23T12:21:48.318Z,13.48
2023-02-23T12:24:27.392Z,12.73
2023-02-23T12:27:03.070Z,16.77
2023-02-23T12:32:33.953Z,11.55
2023-02-23T12:35:12.125Z,11.70
2023-02-23T12:37:48.234Z,11.00
2023-02-23T12:40:20.768Z,10.83
2023-02-23T12:43:01.459Z,10.35
2023-02-23T12:45:40.963Z,11.85
2023-02-23T12:48:20.142Z,9.88
2023-02-23T12:50:56.761Z,12.02
2023-02-23T12:53:35.211Z,13.27
2023-02-23T12:56:27.510Z,16.58
2023-02-23T12:59:13.442Z,9.52
2023-02-23T13:01:49.492Z,8.95
2023-02-23T13:04:45.631Z,8.18
2023-02-23T13:07:22.901Z,7.95
2023-02-23T13:10:07.715Z,7.95
2023-02-23T13:12:54.350Z,7.75
2023-02-23T13:15:35.735Z,7.60
2023-02-23T13:18:14.281Z,16.33
2023-02-23T13:20:49.059Z,8.02
2023-02-23T13:23:32.261Z,7.20
2023-02-23T13:26:20.322Z,8.43
2023-02-23T13:29:01.375Z,8.00
2023-02-23T13:31:35.287Z,9.00
2023-02-23T13:34:08.085Z,8.05
2023-02-23T13:36:38.190Z,9.00
2023-02-23T13:39:47.663Z,8.20
2023-02-23T13:42:40.647Z,7.50
2023-02-23T13:45:30.110Z,7.97
2023-02-23T13:48:07.791Z,7.43
2023-02-23T13:50:49.160Z,7.85
2023-02-23T13:53:43.777Z,8.02
2023-02-23T13:56:19.490Z,9.13
2023-02-23T13:58:53.727Z,10.40
2023-02-23T14:01:30.366Z,25.33
2023-02-23T14:04:03.201Z,19.60
2023-02-23T14:06:35.277Z,8.82
2023-02-23T14:09:11.776Z,7.60
2023-02-23T14:11:53.764Z,7.95
2023-02-23T14:14:44.781Z,6.68
2023-02-23T14:17:56.143Z,7.13
2023-02-23T14:20:53.627Z,7.35
2023-02-23T14:23:37.819Z,6.65
2023-02-23T14:26:41.666Z,7.32
2023-02-23T14:29:32.507Z,8.55
2023-02-23T14:32:25.599Z,9.85
2023-02-23T14:34:57.024Z,7.72
2023-02-23T14:37:32.048Z,7.25
2023-02-23T14:40:12.082Z,7.72
2023-02-23T14:42:42.212Z,7.30
2023-02-23T14:45:25.748Z,7.85
2023-02-23T14:47:59.973Z,8.38
2023-02-23T14:50:31.987Z,7.65
2023-02-23T14:53:02.310Z,9.50
2023-02-23T14:55:32.990Z,9.13
2023-02-23T14:58:02.777Z,12.52
2023-02-23T15:00:36.096Z,13.63
2023-02-23T15:03:09.191Z,7.93
2023-02-23T15:05:44.011Z,7.70
2023-02-23T15:08:18.462Z,8.43
2023-02-23T15:10:50.057Z,9.43
2023-02-23T15:13:39.135Z,8.40
2023-02-23T15:16:16.785Z,8.18
2023-02-23T15:19:33.756Z,7.93
2023-02-23T15:22:05.404Z,8.43
2023-02-23T15:24:43.220Z,8.80
2023-02-23T15:27:22.674Z,9.05
2023-02-23T15:29:51.750Z,8.48
2023-02-23T15:32:24.966Z,12.10
2023-02-23T15:34:55.578Z,9.85
2023-02-23T15:37:33.113Z,9.43
2023-02-23T15:40:06.103Z,9.27
2023-02-23T15:42:40.686Z,9.63
2023-02-23T15:45:27.598Z,9.88
2023-02-23T15:48:01.419Z,8.85
2023-02-23T15:50:37.337Z,8.80
2023-02-23T15:53:13.810Z,10.87
2023-02-23T15:55:45.384Z,10.20
2023-02-23T15:58:23.354Z,12.18
2023-02-23T16:00:58.956Z,9.70
2023-02-23T16:03:34.682Z,10.15
2023-02-23T16:06:08.322Z,10.52
2023-02-23T16:08:37.261Z,10.30
2023-02-23T16:11:16.168Z,10.40
2023-02-23T16:13:47.049Z,10.75
2023-02-23T16:16:21.004Z,8.95
2023-02-23T16:19:01.557Z,10.23
2023-02-23T16:21:35.384Z,9.30
2023-02-23T16:24:22.235Z,10.02
2023-02-23T16:26:57.416Z,9.63
2023-02-23T16:29:41.613Z,11.27
2023-02-23T16:32:18.583Z,10.30
2023-02-23T16:34:52.607Z,10.30
2023-02-23T16:37:26.156Z,10.00
2023-02-23T16:39:55.997Z,12.18
2023-02-23T16:42:29.884Z,11.00
2023-02-23T16:44:59.495Z,11.13
2023-02-23T16:47:43.656Z,9.45
2023-02-23T16:50:20.726Z,11.93
2023-02-23T16:52:53.129Z,14.18
2023-02-23T16:55:26.171Z,21.02
2023-02-23T16:57:58.851Z,21.98
2023-02-23T17:00:30.646Z,15.35
2023-02-23T17:03:00.870Z,12.18
2023-02-23T17:05:31.054Z,10.82
2023-02-23T17:07:59.570Z,14.23
2023-02-23T17:10:32.394Z,13.75
2023-02-23T17:13:05.231Z,12.50
2023-02-23T17:15:37.987Z,12.27
2023-02-23T17:18:07.557Z,13.90
2023-02-23T17:20:37.569Z,11.20
2023-02-23T17:23:06.572Z,11.48
2023-02-23T17:25:35.397Z,11.98
2023-02-23T17:28:04.367Z,15.38
2023-02-23T17:30:33.976Z,12.82
2023-02-23T17:33:03.240Z,19.77
2023-02-23T17:35:33.652Z,15.05
2023-02-23T17:38:04.075Z,11.88
2023-02-23T17:40:36.365Z,27.05
2023-02-23T17:43:08.630Z,19.95
2023-02-23T17:45:37.292Z,21.63
2023-02-23T17:48:06.369Z,14.77
2023-02-23T17:50:34.713Z,11.30
2023-02-23T17:53:04.443Z,14.15
2023-02-23T17:55:32.982Z,9.13
2023-02-23T17:58:01.264Z,14.38
2023-02-23T18:00:29.640Z,10.52
2023-02-23T18:02:58.156Z,17.13
2023-02-23T18:05:26.413Z,6.95
2023-02-23T18:07:54.638Z,6.20
2023-02-23T18:10:25.599Z,7.95
2023-02-23T18:12:54.064Z,11.15
2023-02-23T18:15:22.841Z,5.75
2023-02-23T18:17:54.634Z,7.45
2023-02-23T18:20:23.353Z,7.43
2023-02-23T18:22:51.499Z,5.75
2023-02-23T18:25:29.471Z,8.80
2023-02-23T18:27:58.765Z,10.07
2023-02-23T18:30:28.336Z,5.43
2023-02-23T18:33:00.869Z,7.75
2023-02-23T18:35:29.565Z,20.48
2023-02-23T18:37:57.935Z,5.85
2023-02-23T18:40:28.090Z,7.07
2023-02-23T18:42:58.924Z,7.30
2023-02-23T18:45:27.987Z,8.23
2023-02-23T18:47:56.460Z,10.55
2023-02-23T18:50:26.440Z,8.82
2023-02-23T18:52:58.203Z,6.65
2023-02-23T18:55:28.535Z,7.20
2023-02-23T18:57:56.743Z,6.95
2023-02-23T19:00:25.507Z,8.15
2023-02-23T19:02:53.855Z,7.57
2023-02-23T19:05:22.786Z,7.07
2023-02-23T19:07:51.076Z,8.68
2023-02-23T19:10:19.564Z,8.68
2023-02-23T19:12:49.348Z,8.75
2023-02-23T19:15:17.665Z,8.13
2023-02-23T19:17:47.392Z,7.47
2023-02-23T19:20:15.916Z,5.50
2023-02-23T19:22:45.511Z,5.85
2023-02-23T19:25:15.467Z,7.78
2023-02-23T19:27:44.342Z,8.82
2023-02-23T19:30:14.940Z,8.95
2023-02-23T19:32:44.183Z,17.67
2023-02-23T19:35:15.964Z,8.27
2023-02-23T19:37:49.922Z,8.70
2023-02-23T19:40:22.773Z,7.75
2023-02-23T19:42:53.122Z,6.70
2023-02-23T19:45:24.812Z,6.95
2023-02-23T19:47:54.076Z,9.02
2023-02-23T19:50:23.203Z,7.95
2023-02-23T19:52:51.464Z,10.60
2023-02-23T19:55:20.283Z,23.55
2023-02-23T19:57:48.616Z,15.60
2023-02-23T20:00:18.010Z,11.77
2023-02-23T20:02:54.817Z,10.65
2023-02-23T20:05:25.752Z,8.10
2023-02-23T20:07:54.874Z,8.55
2023-02-23T20:10:25.819Z,18.40
2023-02-23T20:12:54.222Z,8.60
2023-02-23T20:15:22.800Z,11.82
2023-02-23T20:17:52.416Z,13.55
2023-02-23T20:20:25.418Z,10.23
2023-02-23T20:22:55.384Z,12.68
2023-02-23T20:25:24.728Z,13.43
2023-02-23T20:27:53.128Z,11.35
2023-02-23T20:30:22.204Z,9.52
2023-02-23T20:32:52.008Z,7.80
2023-02-23T20:35:21.299Z,9.07
2023-02-23T20:37:49.505Z,10.25
2023-02-23T20:40:18.862Z,14.07
2023-02-23T20:42:49.611Z,13.82
2023-02-23T20:45:22.129Z,14.52
2023-02-23T20:47:54.920Z,13.15
2023-02-23T20:50:28.522Z,10.60
2023-02-23T20:52:56.848Z,11.85
2023-02-23T20:55:27.295Z,12.73
2023-02-23T20:57:56.665Z,12.68
2023-02-23T21:00:28.281Z,11.73
2023-02-23T21:02:58.106Z,10.35
2023-02-23T21:05:29.383Z,11.02
2023-02-23T21:08:02.177Z,12.10
2023-02-23T21:10:32.618Z,13.30
2023-02-23T21:13:01.062Z,12.45
2023-02-23T21:15:30.723Z,14.40
2023-02-23T21:18:00.990Z,14.75
2023-02-23T21:20:29.588Z,13.15
2023-02-23T21:22:57.936Z,15.25
2023-02-23T21:25:29.180Z,16.50
2023-02-23T21:28:01.906Z,14.30
2023-02-23T21:30:31.714Z,17.02
2023-02-23T21:33:03.928Z,14.23
2023-02-23T21:35:32.358Z,12.88
2023-02-23T21:38:00.748Z,17.88
2023-02-23T21:40:29.207Z,13.80
2023-02-23T21:42:57.536Z,12.60
2023-02-23T21:45:25.806Z,13.18
2023-02-23T21:47:54.034Z,12.13
2023-02-23T21:50:26.504Z,13.18
2023-02-23T21:52:58.286Z,13.30
2023-02-23T21:55:26.528Z,12.02
2023-02-23T21:57:55.016Z,13.77
2023-02-23T22:00:24.134Z,11.75
2023-02-23T22:02:53.028Z,11.15
2023-02-23T22:05:23.334Z,14.38
2023-02-23T22:07:54.177Z,12.73
2023-02-23T22:10:25.044Z,14.68
2023-02-23T22:12:56.203Z,15.65
2023-02-23T22:15:27.753Z,13.80
2023-02-23T22:17:56.439Z,12.27
2023-02-23T22:20:26.700Z,13.02
2023-02-23T22:22:55.032Z,12.40
2023-02-23T22:25:23.393Z,13.50
2023-02-23T22:27:51.640Z,14.23
2023-02-23T22:30:22.413Z,13.32
2023-02-23T22:32:51.379Z,13.35
2023-02-23T22:35:19.784Z,13.45
2023-02-23T22:37:49.612Z,12.68
2023-02-23T22:40:18.512Z,11.43
2023-02-23T22:42:49.212Z,14.30
2023-02-23T22:45:18.995Z,13.57
2023-02-23T22:47:47.247Z,14.65
2023-02-23T22:50:19.406Z,12.90
2023-02-23T22:52:49.020Z,15.18
2023-02-23T22:55:19.263Z,13.43
2023-02-23T22:57:47.841Z,13.85
2023-02-23T23:00:19.964Z,14.70
2023-02-23T23:02:48.369Z,13.75
2023-02-23T23:05:16.822Z,16.15
2023-02-23T23:07:46.867Z,14.00
2023-02-23T23:10:19.183Z,15.98
2023-02-23T23:12:48.901Z,14.57
2023-02-23T23:15:19.318Z,14.05
2023-02-23T23:17:49.381Z,12.75
2023-02-23T23:20:25.525Z,17.45
2023-02-23T23:22:53.878Z,14.98
2023-02-23T23:25:23.796Z,14.48
2023-02-23T23:27:55.700Z,14.32
2023-02-23T23:30:26.100Z,15.80
2023-02-23T23:32:55.818Z,12.50
2023-02-23T23:35:26.119Z,16.60
2023-02-23T23:37:54.359Z,16.38
2023-02-23T23:40:25.307Z,14.48
2023-02-23T23:42:55.435Z,17.27
2023-02-23T23:45:25.802Z,18.95
2023-02-23T23:47:54.056Z,15.15
2023-02-23T23:50:26.657Z,15.60
2023-02-23T23:52:55.551Z,17.35
2023-02-23T23:55:25.052Z,16.27
2023-02-23T23:57:53.325Z,14.55
